createdAt,value
2023-03-07T00:02:00.424Z,-0.60
2023-03-07T00:04:27.188Z,-0.60
2023-03-07T00:06:55.874Z,-0.60
2023-03-07T00:09:22.667Z,-0.60
2023-03-07T00:11:50.454Z,-0.70
2023-03-07T00:14:17.244Z,-0.70
2023-03-07T00:16:44.173Z,-0.80
2023-03-07T00:19:11.356Z,-0.80
2023-03-07T00:21:38.406Z,-0.80
2023-03-07T00:24:05.833Z,-0.80
2023-03-07T00:26:33.375Z,-0.80
2023-03-07T00:29:00.346Z,-0.80
2023-03-07T00:31:27.167Z,-0.90
2023-03-07T00:33:53.987Z,-0.90
2023-03-07T00:36:22.799Z,-0.90
2023-03-07T00:38:50.352Z,-0.90
2023-03-07T00:41:20.461Z,-1.00
2023-03-07T00:43:47.392Z,-1.10
2023-03-07T00:46:15.546Z,-1.10
2023-03-07T00:48:45.598Z,-1.10
2023-03-07T00:51:15.890Z,-1.10
2023-03-07T00:53:43.617Z,-1.20
2023-03-07T00:56:23.014Z,-1.20
2023-03-07T00:58:50.635Z,-1.20
2023-03-07T01:01:21.512Z,-1.10
2023-03-07T01:03:49.723Z,-1.10
2023-03-07T01:06:20.898Z,-1.00
2023-03-07T01:08:47.984Z,-1.00
2023-03-07T01:11:16.236Z,-1.00
2023-03-07T01:13:43.276Z,-1.00
2023-03-07T01:16:16.945Z,-0.90
2023-03-07T01:18:45.194Z,-0.80
2023-03-07T01:21:13.970Z,-0.70
2023-03-07T01:23:41.168Z,-0.70
2023-03-07T01:26:16.000Z,-0.70
2023-03-07T01:28:43.125Z,-0.70
2023-03-07T01:31:11.269Z,-0.60
2023-03-07T01:33:40.268Z,-0.60
2023-03-07T01:36:22.501Z,-0.60
2023-03-07T01:38:49.990Z,-0.50
2023-03-07T01:41:17.329Z,-0.50
2023-03-07T01:43:46.608Z,-0.50
2023-03-07T01:46:17.340Z,-0.50
2023-03-07T01:49:14.987Z,-0.50
2023-03-07T01:51:46.438Z,-0.50
2023-03-07T01:54:17.534Z,-0.40
2023-03-07T01:56:46.676Z,-0.40
2023-03-07T01:59:18.211Z,-0.40
2023-03-07T02:01:45.236Z,-0.30
2023-03-07T02:04:36.578Z,-0.20
2023-03-07T02:07:03.901Z,-0.20
2023-03-07T02:09:32.716Z,-0.20
2023-03-07T02:12:01.631Z,-0.20
2023-03-07T02:14:29.415Z,-0.20
2023-03-07T02:16:56.216Z,-0.10
2023-03-07T02:19:34.562Z,-0.20
2023-03-07T02:22:11.674Z,-0.10
2023-03-07T02:24:50.143Z,-0.10
2023-03-07T02:27:17.427Z,-0.10
2023-03-07T02:29:44.526Z,-0.10
2023-03-07T02:32:12.592Z,-0.10
2023-03-07T02:34:39.454Z,0.00
2023-03-07T02:37:22.245Z,0.00
2023-03-07T02:39:50.201Z,0.10
2023-03-07T02:42:27.727Z,0.10
2023-03-07T02:45:09.990Z,0.10
2023-03-07T02:47:38.681Z,0.10
2023-03-07T02:50:06.404Z,0.00
2023-03-07T02:52:34.992Z,0.00
2023-03-07T02:55:01.880Z,0.10
2023-03-07T02:57:32.554Z,0.10
2023-03-07T03:00:00.832Z,0.10
2023-03-07T03:02:27.629Z,0.10
2023-03-07T03:04:54.417Z,0.10
2023-03-07T03:07:23.357Z,0.10
2023-03-07T03:09:50.102Z,0.10
2023-03-07T03:12:17.561Z,0.00
2023-03-07T03:14:46.983Z,0.00
2023-03-07T03:17:13.931Z,0.10
2023-03-07T03:19:41.384Z,0.10
2023-03-07T03:22:08.205Z,0.10
2023-03-07T03:24:40.691Z,0.10
2023-03-07T03:27:09.509Z,0.10
2023-03-07T03:29:36.596Z,0.10
2023-03-07T03:32:05.660Z,0.10
2023-03-07T03:34:33.047Z,0.10
2023-03-07T03:36:59.940Z,0.10
2023-03-07T03:39:29.112Z,0.10
2023-03-07T03:41:58.694Z,0.10
2023-03-07T03:44:25.556Z,0.10
2023-03-07T03:46:52.405Z,0.20
2023-03-07T03:49:21.539Z,0.20
2023-03-07T03:51:50.489Z,0.20
2023-03-07T03:54:18.133Z,0.20
2023-03-07T03:56:45.304Z,0.30
2023-03-07T03:59:12.297Z,0.30
2023-03-07T04:01:39.139Z,0.30
2023-03-07T04:04:06.582Z,0.30
2023-03-07T04:06:34.952Z,0.40
2023-03-07T04:09:04.693Z,0.50
2023-03-07T04:11:32.658Z,0.50
2023-03-07T04:13:59.656Z,0.50
2023-03-07T04:16:27.027Z,0.60
2023-03-07T04:18:54.246Z,0.60
2023-03-07T04:21:22.561Z,0.70
2023-03-07T04:23:55.371Z,0.70
2023-03-07T04:26:24.033Z,0.70
2023-03-07T04:28:51.014Z,0.80
2023-03-07T04:31:41.003Z,0.80
2023-03-07T04:34:08.848Z,0.80
2023-03-07T04:36:35.937Z,0.80
2023-03-07T04:39:03.026Z,0.90
2023-03-07T04:41:30.625Z,0.80
2023-03-07T04:44:04.576Z,0.80
2023-03-07T04:46:31.641Z,0.80
2023-03-07T04:48:58.414Z,0.80
2023-03-07T04:51:25.429Z,0.80
2023-03-07T04:53:52.304Z,0.80
2023-03-07T04:56:19.148Z,0.80
2023-03-07T04:58:47.368Z,0.80
2023-03-07T05:01:15.212Z,0.80
2023-03-07T05:03:42.852Z,0.80
2023-03-07T05:06:14.633Z,0.90
2023-03-07T05:08:43.239Z,0.80
2023-03-07T05:11:17.207Z,0.90
2023-03-07T05:13:53.099Z,0.90
2023-03-07T05:16:22.201Z,0.90
2023-03-07T05:18:49.678Z,0.90
2023-03-07T05:21:16.806Z,0.90
2023-03-07T05:23:43.614Z,0.90
2023-03-07T05:26:12.050Z,0.90
2023-03-07T05:28:38.905Z,0.90
2023-03-07T05:31:06.100Z,0.90
2023-03-07T05:33:34.006Z,0.80
2023-03-07T05:36:02.242Z,0.90
2023-03-07T05:38:40.104Z,0.90
2023-03-07T05:41:07.363Z,0.90
2023-03-07T05:43:40.620Z,0.90
2023-03-07T05:46:11.644Z,0.90
2023-03-07T05:48:40.918Z,1.00
2023-03-07T05:51:08.372Z,1.00
2023-03-07T05:53:35.414Z,1.00
2023-03-07T05:56:02.694Z,1.00
2023-03-07T05:58:30.331Z,1.00
2023-03-07T06:00:58.435Z,1.00
2023-03-07T06:03:27.767Z,1.10
2023-03-07T06:05:55.142Z,1.10
2023-03-07T06:08:22.205Z,1.10
2023-03-07T06:10:50.359Z,1.10
2023-03-07T06:13:20.584Z,1.10
2023-03-07T06:15:55.244Z,1.10
2023-03-07T06:18:25.419Z,1.10
2023-03-07T06:21:01.481Z,1.10
2023-03-07T06:23:33.454Z,1.10
2023-03-07T06:26:01.110Z,1.20
2023-03-07T06:28:28.451Z,1.10
2023-03-07T06:30:55.300Z,1.20
2023-03-07T06:33:24.347Z,1.20
2023-03-07T06:35:51.555Z,1.30
2023-03-07T06:38:20.125Z,1.30
2023-03-07T06:40:55.504Z,1.30
2023-03-07T06:43:22.718Z,1.40
2023-03-07T06:45:49.704Z,1.40
2023-03-07T06:48:18.159Z,1.40
2023-03-07T06:50:45.568Z,1.40
2023-03-07T06:53:17.797Z,1.50
2023-03-07T06:55:52.791Z,1.50
2023-03-07T06:58:19.657Z,1.50
2023-03-07T07:00:46.605Z,1.50
2023-03-07T07:03:18.390Z,1.60
2023-03-07T07:05:45.366Z,1.60
2023-03-07T07:08:12.461Z,1.60
2023-03-07T07:10:39.252Z,1.70
2023-03-07T07:13:06.918Z,1.70
2023-03-07T07:15:34.400Z,1.70
2023-03-07T07:18:01.689Z,1.70
2023-03-07T07:20:31.796Z,1.70
2023-03-07T07:22:59.478Z,1.70
2023-03-07T07:25:26.203Z,1.80
2023-03-07T07:27:53.244Z,1.80
2023-03-07T07:30:20.333Z,1.90
2023-03-07T07:32:48.032Z,1.90
2023-03-07T07:35:15.185Z,1.90
2023-03-07T07:37:42.054Z,1.90
2023-03-07T07:40:10.653Z,2.00
2023-03-07T07:42:38.246Z,1.90
2023-03-07T07:45:24.943Z,1.90
2023-03-07T07:47:52.619Z,2.00
2023-03-07T07:50:23.129Z,2.00
2023-03-07T07:52:52.440Z,2.00
2023-03-07T07:55:19.428Z,2.00
2023-03-07T07:57:48.536Z,2.10
2023-03-07T08:00:21.302Z,2.10
2023-03-07T08:02:51.792Z,2.10
2023-03-07T08:05:21.647Z,2.10
2023-03-07T08:07:50.252Z,2.20
2023-03-07T08:10:18.918Z,2.30
2023-03-07T08:12:51.279Z,2.30
2023-03-07T08:15:21.414Z,2.30
2023-03-07T08:17:50.356Z,2.30
2023-03-07T08:20:17.773Z,2.40
2023-03-07T08:22:44.691Z,2.40
2023-03-07T08:25:18.208Z,2.40
2023-03-07T08:27:45.039Z,2.50
2023-03-07T08:30:13.227Z,2.50
2023-03-07T08:32:40.270Z,2.50
2023-03-07T08:35:07.644Z,2.60
2023-03-07T08:37:35.284Z,2.70
2023-03-07T08:40:02.376Z,2.80
2023-03-07T08:42:29.301Z,2.90
2023-03-07T08:44:56.187Z,3.00
2023-03-07T08:47:22.961Z,3.10
2023-03-07T08:49:49.794Z,3.10
2023-03-07T08:52:16.642Z,3.20
2023-03-07T08:54:43.473Z,3.20
2023-03-07T08:57:10.718Z,3.30
2023-03-07T08:59:37.478Z,3.30
2023-03-07T09:02:04.394Z,3.30
2023-03-07T09:04:31.233Z,3.40
2023-03-07T09:07:00.065Z,3.40
2023-03-07T09:09:29.646Z,3.50
2023-03-07T09:11:56.648Z,3.70
2023-03-07T09:14:23.639Z,3.70
2023-03-07T09:16:50.708Z,3.80
2023-03-07T09:19:17.566Z,3.70
2023-03-07T09:21:44.389Z,3.80
2023-03-07T09:24:11.237Z,3.90
2023-03-07T09:26:38.120Z,4.10
2023-03-07T09:29:04.909Z,4.10
2023-03-07T09:31:31.699Z,4.10
2023-03-07T09:33:58.462Z,4.10
2023-03-07T09:36:25.194Z,4.10
2023-03-07T09:38:58.068Z,4.10
2023-03-07T09:41:45.329Z,4.00
2023-03-07T09:44:18.078Z,4.00
2023-03-07T09:47:28.893Z,4.00
2023-03-07T09:49:55.883Z,4.10
2023-03-07T09:52:27.182Z,4.10
2023-03-07T09:55:00.003Z,4.20
2023-03-07T09:57:34.174Z,4.20
2023-03-07T10:00:38.172Z,4.10
2023-03-07T10:03:33.752Z,4.10
2023-03-07T10:06:10.547Z,4.10
2023-03-07T10:08:37.663Z,4.10
2023-03-07T10:11:19.910Z,4.00
2023-03-07T10:14:08.325Z,4.00
2023-03-07T10:16:41.388Z,4.10
2023-03-07T10:19:23.614Z,4.10
2023-03-07T10:22:27.658Z,4.00
2023-03-07T10:25:08.564Z,4.20
2023-03-07T10:27:35.366Z,4.30
2023-03-07T10:30:11.388Z,4.30
2023-03-07T10:32:48.544Z,4.30
2023-03-07T10:35:21.339Z,4.30
2023-03-07T10:37:56.792Z,4.30
2023-03-07T10:40:25.469Z,4.30
2023-03-07T10:42:53.855Z,4.10
2023-03-07T10:45:21.301Z,4.20
2023-03-07T10:47:48.650Z,4.20
2023-03-07T10:50:15.559Z,4.10
2023-03-07T10:52:53.728Z,4.10
2023-03-07T10:55:37.653Z,4.10
2023-03-07T10:58:51.551Z,4.20
2023-03-07T11:01:20.721Z,4.10
2023-03-07T11:04:22.988Z,4.00
2023-03-07T11:06:55.192Z,4.10
2023-03-07T11:09:29.762Z,4.10
2023-03-07T11:12:11.235Z,4.10
2023-03-07T11:14:51.732Z,4.00
2023-03-07T11:17:43.086Z,4.00
2023-03-07T11:20:31.564Z,3.90
2023-03-07T11:23:23.485Z,4.00
2023-03-07T11:25:51.846Z,4.00
2023-03-07T11:28:36.711Z,3.90
2023-03-07T11:31:27.398Z,3.90
2023-03-07T11:33:59.591Z,3.90
2023-03-07T11:36:36.755Z,3.80
2023-03-07T11:39:15.409Z,3.80
2023-03-07T11:42:03.787Z,3.70
2023-03-07T11:44:35.338Z,3.80
2023-03-07T11:47:14.133Z,3.70
2023-03-07T11:49:53.393Z,3.70
2023-03-07T11:52:29.367Z,3.60
2023-03-07T11:55:15.237Z,3.60
2023-03-07T11:57:55.711Z,3.50
2023-03-07T12:00:44.169Z,3.50
2023-03-07T12:03:47.464Z,3.40
2023-03-07T12:06:29.345Z,3.40
2023-03-07T12:09:10.423Z,3.30
2023-03-07T12:11:55.949Z,3.20
2023-03-07T12:14:34.660Z,3.00
2023-03-07T12:17:10.664Z,3.00
2023-03-07T12:19:58.431Z,2.90
2023-03-07T12:22:29.734Z,2.90
2023-03-07T12:25:24.968Z,2.80
2023-03-07T12:28:06.951Z,2.70
2023-03-07T12:30:39.721Z,2.60
2023-03-07T12:33:07.391Z,2.60
2023-03-07T12:35:45.264Z,2.60
2023-03-07T12:38:36.715Z,2.60
2023-03-07T12:41:23.776Z,2.60
2023-03-07T12:43:56.114Z,2.60
2023-03-07T12:46:46.489Z,2.70
2023-03-07T12:49:33.856Z,2.60
2023-03-07T12:52:06.569Z,2.60
2023-03-07T12:54:39.493Z,2.50
2023-03-07T12:57:16.276Z,2.60
2023-03-07T12:59:44.138Z,2.50
2023-03-07T13:02:21.892Z,2.50
2023-03-07T13:04:48.783Z,2.50
2023-03-07T13:07:22.435Z,2.40
2023-03-07T13:09:51.398Z,2.40
2023-03-07T13:12:24.417Z,2.30
2023-03-07T13:14:55.443Z,2.40
2023-03-07T13:17:31.362Z,2.40
2023-03-07T13:20:00.363Z,2.40
2023-03-07T13:22:27.200Z,2.30
2023-03-07T13:25:00.223Z,2.30
2023-03-07T13:27:45.470Z,2.00
2023-03-07T13:30:12.405Z,2.40
2023-03-07T13:32:51.533Z,2.40
2023-03-07T13:35:33.422Z,2.30
2023-03-07T13:38:44.043Z,2.20
2023-03-07T13:41:12.990Z,2.40
2023-03-07T13:43:45.818Z,2.40
2023-03-07T13:46:24.973Z,2.40
2023-03-07T13:48:54.630Z,2.40
2023-03-07T13:51:21.628Z,2.30
2023-03-07T13:53:52.056Z,2.30
2023-03-07T13:56:27.978Z,2.30
2023-03-07T13:59:10.220Z,2.30
2023-03-07T14:01:46.818Z,2.30
2023-03-07T14:04:39.947Z,2.30
2023-03-07T14:07:28.213Z,2.20
2023-03-07T14:10:31.746Z,2.30
2023-03-07T14:13:29.474Z,2.20
2023-03-07T14:16:15.157Z,2.20
2023-03-07T14:18:46.200Z,2.10
2023-03-07T14:21:33.246Z,2.10
2023-03-07T14:24:25.496Z,2.20
2023-03-07T14:27:00.033Z,2.20
2023-03-07T14:29:29.645Z,2.30
2023-03-07T14:31:58.408Z,2.30
2023-03-07T14:34:40.132Z,2.40
2023-03-07T14:37:16.811Z,2.40
2023-03-07T14:40:22.325Z,2.40
2023-03-07T14:43:01.008Z,2.40
2023-03-07T14:45:51.183Z,2.40
2023-03-07T14:48:43.506Z,2.30
2023-03-07T14:51:16.508Z,2.40
2023-03-07T14:53:43.802Z,2.40
2023-03-07T14:56:11.834Z,2.40
2023-03-07T14:58:49.555Z,2.40
2023-03-07T15:01:19.601Z,2.50
2023-03-07T15:03:55.545Z,2.50
2023-03-07T15:06:27.482Z,2.60
2023-03-07T15:08:57.119Z,2.70
2023-03-07T15:11:44.606Z,2.70
2023-03-07T15:14:16.994Z,2.70
2023-03-07T15:16:53.922Z,2.70
2023-03-07T15:19:31.449Z,2.80
2023-03-07T15:22:01.592Z,2.80
2023-03-07T15:24:33.651Z,2.90
2023-03-07T15:27:01.338Z,2.90
2023-03-07T15:29:32.986Z,2.90
2023-03-07T15:32:09.512Z,2.80
2023-03-07T15:34:39.754Z,2.80
2023-03-07T15:37:27.525Z,2.70
2023-03-07T15:39:57.403Z,2.80
2023-03-07T15:42:24.560Z,2.70
2023-03-07T15:44:59.894Z,2.70
2023-03-07T15:47:29.167Z,2.60
2023-03-07T15:50:06.443Z,2.60
2023-03-07T15:52:36.609Z,2.60
2023-03-07T15:55:08.061Z,2.60
2023-03-07T15:57:47.056Z,2.60
2023-03-07T16:00:33.833Z,2.50
2023-03-07T16:03:26.729Z,2.60
2023-03-07T16:05:55.257Z,2.60
2023-03-07T16:08:22.172Z,2.60
2023-03-07T16:11:04.991Z,2.60
2023-03-07T16:13:38.908Z,2.50
2023-03-07T16:16:22.625Z,2.50
2023-03-07T16:18:50.707Z,2.40
2023-03-07T16:21:19.092Z,2.40
2023-03-07T16:23:48.915Z,2.40
2023-03-07T16:26:20.794Z,2.40
2023-03-07T16:28:48.729Z,2.40
2023-03-07T16:31:17.769Z,2.30
2023-03-07T16:33:45.910Z,2.30
2023-03-07T16:36:13.247Z,2.30
2023-03-07T16:38:40.515Z,2.20
2023-03-07T16:41:33.498Z,2.30
2023-03-07T16:44:02.570Z,2.20
2023-03-07T16:46:29.591Z,2.20
2023-03-07T16:48:56.486Z,2.20
2023-03-07T16:51:26.000Z,2.20
2023-03-07T16:53:52.883Z,2.10
2023-03-07T16:56:28.020Z,2.10
2023-03-07T16:58:54.974Z,2.10
2023-03-07T17:01:21.916Z,2.10
2023-03-07T17:03:48.950Z,2.10
2023-03-07T17:06:17.347Z,2.00
2023-03-07T17:08:45.270Z,2.00
2023-03-07T17:11:24.356Z,2.00
2023-03-07T17:13:54.289Z,2.00
2023-03-07T17:16:21.712Z,2.00
2023-03-07T17:18:48.518Z,2.00
2023-03-07T17:21:18.115Z,1.90
2023-03-07T17:23:45.734Z,1.90
2023-03-07T17:26:29.759Z,1.90
2023-03-07T17:28:59.643Z,1.90
2023-03-07T17:31:26.757Z,1.90
2023-03-07T17:33:53.616Z,1.90
2023-03-07T17:36:20.607Z,1.90
2023-03-07T17:38:48.278Z,1.90
2023-03-07T17:41:15.145Z,1.80
2023-03-07T17:43:42.067Z,1.80
2023-03-07T17:46:10.280Z,1.70
2023-03-07T17:48:38.100Z,1.80
2023-03-07T17:51:09.520Z,1.80
2023-03-07T17:53:37.800Z,1.70
2023-03-07T17:56:15.879Z,1.70
2023-03-07T17:58:42.822Z,1.80
2023-03-07T18:01:11.953Z,1.80
2023-03-07T18:03:38.941Z,1.70
2023-03-07T18:06:06.708Z,1.70
2023-03-07T18:08:33.822Z,1.70
2023-03-07T18:11:09.409Z,1.70
2023-03-07T18:13:37.107Z,1.70
2023-03-07T18:16:04.307Z,1.70
2023-03-07T18:18:34.683Z,1.70
2023-03-07T18:21:13.779Z,1.70
2023-03-07T18:23:41.270Z,1.70
2023-03-07T18:26:13.880Z,1.70
2023-03-07T18:28:43.370Z,1.70
2023-03-07T18:31:19.513Z,1.70
2023-03-07T18:33:56.969Z,1.70
2023-03-07T18:36:27.592Z,1.70
2023-03-07T18:38:54.647Z,1.70
2023-03-07T18:41:24.095Z,1.70
2023-03-07T18:43:52.925Z,1.70
2023-03-07T18:46:22.353Z,1.70
2023-03-07T18:48:49.920Z,1.60
2023-03-07T18:51:19.654Z,1.60
2023-03-07T18:53:46.467Z,1.60
2023-03-07T18:56:15.548Z,1.60
2023-03-07T18:58:43.507Z,1.60
2023-03-07T19:01:19.514Z,1.60
2023-03-07T19:03:48.416Z,1.60
2023-03-07T19:06:17.025Z,1.60
2023-03-07T19:08:44.276Z,1.60
2023-03-07T19:11:13.089Z,1.50
2023-03-07T19:13:40.838Z,1.50
2023-03-07T19:16:11.623Z,1.50
2023-03-07T19:18:38.962Z,1.50
2023-03-07T19:21:17.683Z,1.50
2023-03-07T19:23:45.103Z,1.50
2023-03-07T19:26:14.080Z,1.50
2023-03-07T19:28:44.505Z,1.50
2023-03-07T19:31:29.442Z,1.60
2023-03-07T19:33:57.488Z,1.50
2023-03-07T19:36:27.428Z,1.50
2023-03-07T19:38:56.518Z,1.50
2023-03-07T19:41:25.640Z,1.50
2023-03-07T19:43:55.184Z,1.50
2023-03-07T19:46:22.404Z,1.50
2023-03-07T19:48:52.497Z,1.60
2023-03-07T19:51:24.924Z,1.60
2023-03-07T19:53:53.477Z,1.60
2023-03-07T19:56:24.958Z,1.60
2023-03-07T19:58:52.085Z,1.50
2023-03-07T20:01:20.570Z,1.50
2023-03-07T20:03:48.237Z,1.50
2023-03-07T20:06:19.768Z,1.50
2023-03-07T20:08:51.010Z,1.50
2023-03-07T20:11:20.950Z,1.40
2023-03-07T20:13:48.673Z,1.50
2023-03-07T20:16:23.358Z,1.50
2023-03-07T20:18:54.404Z,1.50
2023-03-07T20:21:29.792Z,1.50
2023-03-07T20:24:00.871Z,1.50
2023-03-07T20:26:33.852Z,1.50
2023-03-07T20:29:02.509Z,1.50
2023-03-07T20:31:29.498Z,1.50
2023-03-07T20:33:58.480Z,1.50
2023-03-07T20:36:28.368Z,1.50
2023-03-07T20:38:57.833Z,1.50
2023-03-07T20:41:27.755Z,1.50
2023-03-07T20:43:59.068Z,1.50
2023-03-07T20:46:25.969Z,1.50
2023-03-07T20:48:57.299Z,1.50
2023-03-07T20:51:27.650Z,1.50
2023-03-07T20:54:05.781Z,1.50
2023-03-07T20:56:35.097Z,1.40
2023-03-07T20:59:02.185Z,1.50
2023-03-07T21:01:31.040Z,1.50
2023-03-07T21:04:11.014Z,1.40
2023-03-07T21:06:48.170Z,1.40
2023-03-07T21:09:16.847Z,1.40
2023-03-07T21:11:46.016Z,1.30
2023-03-07T21:14:16.502Z,1.30
2023-03-07T21:16:43.825Z,1.40
2023-03-07T21:19:11.501Z,1.40
2023-03-07T21:21:38.900Z,1.30
2023-03-07T21:24:06.742Z,1.40
2023-03-07T21:26:36.437Z,1.30
2023-03-07T21:29:04.608Z,1.30
2023-03-07T21:31:34.290Z,1.30
2023-03-07T21:34:03.928Z,1.30
2023-03-07T21:36:34.536Z,1.30
2023-03-07T21:39:04.207Z,1.30
2023-03-07T21:41:34.632Z,1.30
2023-03-07T21:44:02.336Z,1.30
2023-03-07T21:46:29.302Z,1.30
2023-03-07T21:49:02.142Z,1.20
2023-03-07T21:51:29.536Z,1.20
2023-03-07T21:53:59.805Z,1.20
2023-03-07T21:56:26.762Z,1.20
2023-03-07T21:58:54.221Z,1.20
2023-03-07T22:01:26.463Z,1.10
2023-03-07T22:03:55.413Z,1.10
2023-03-07T22:06:23.082Z,1.10
2023-03-07T22:08:53.176Z,1.10
2023-03-07T22:11:20.204Z,1.10
2023-03-07T22:13:47.124Z,1.10
2023-03-07T22:16:16.325Z,1.10
2023-03-07T22:18:43.387Z,1.10
2023-03-07T22:21:17.166Z,1.10
2023-03-07T22:23:44.272Z,1.00
2023-03-07T22:26:12.504Z,1.00
2023-03-07T22:28:40.912Z,1.00
2023-03-07T22:31:11.444Z,1.00
2023-03-07T22:33:38.736Z,1.00
2023-03-07T22:36:06.907Z,0.90
2023-03-07T22:38:34.151Z,0.90
2023-03-07T22:41:06.337Z,1.00
2023-03-07T22:43:34.133Z,0.90
2023-03-07T22:46:01.393Z,0.90
2023-03-07T22:48:28.772Z,1.00
2023-03-07T22:50:56.323Z,0.90
2023-03-07T22:53:25.924Z,0.90
2023-03-07T22:55:54.088Z,0.90
2023-03-07T22:58:20.870Z,0.90
2023-03-07T23:00:47.771Z,0.90
2023-03-07T23:03:14.558Z,0.90
2023-03-07T23:05:41.439Z,0.80
2023-03-07T23:08:08.245Z,0.90
2023-03-07T23:10:35.085Z,0.90
2023-03-07T23:13:02.130Z,0.90
2023-03-07T23:15:29.027Z,0.90
2023-03-07T23:17:55.951Z,0.90
2023-03-07T23:20:26.162Z,0.90
2023-03-07T23:22:53.752Z,0.80
2023-03-07T23:25:21.046Z,0.80
2023-03-07T23:27:48.101Z,0.70
2023-03-07T23:30:17.331Z,0.80
2023-03-07T23:32:44.324Z,0.70
2023-03-07T23:35:11.605Z,0.70
2023-03-07T23:37:38.897Z,0.70
2023-03-07T23:40:06.523Z,0.70
2023-03-07T23:42:33.380Z,0.60
2023-03-07T23:45:00.141Z,0.60
2023-03-07T23:47:27.003Z,0.50
2023-03-07T23:49:53.788Z,0.50
2023-03-07T23:52:20.683Z,0.50
2023-03-07T23:54:47.551Z,0.50
2023-03-07T23:57:14.370Z,0.50
2023-03-07T23:59:41.210Z,0.50
